Hauptseite
METAR-TAF:

METAR-TAF

Flughäfen :

Militärflugplatz Volkel

Uden, Niederlande

Breite: 51-39N, Länge: 005-42E, Höhe: 22 m

Beobachtung

Neuester Wetterbericht von vor 38 Minuten, um 17:55 UTC
Wind 5 kt aus Süd, variierte zwischen Süd/Südost und Südwest
Temperatur 28°C
Luftfeuchtigkeit 28%
Luftdruck 1014 hPa
Sichtweite 10 km oder mehr

METAR: EHVK 051755Z AUTO 18005KT 160V220 9999 NCD 28/08 Q1014 BLU

Zeit: 20:33 (18:33 UTC)

Prognose

Neuester Wetterbericht von vor 2 Stunden und 35 Minuten, um 15:58 UTC
Gültige Prognose vom 05 um 17 UTC bis 06 um 05 UTC
Wind 6 kt aus Süd
Sichtweite 10 km oder mehr
keine Wolken unter 1500 m und keine Kumulonimbus oder Gewitterwolken

TAF: EHVK 051558Z 0517/0605 17006KT CAVOK

Wetterbeobachtungen und Prognosen von mehr als 4000 Flughäfen (METAR und TAF Bericht).

Die verfügbaren Stationen werden durch gelbe und rote Markierungen auf der Karte dargestellt.

Führen Sie die Maus auf sie, um den Namen der Station zu sehen.

Darauf klicken, um die Beobachtung von Wetterbeobachtungen und Prognosen zu sehen.

Um die Karte zu ändern : klicken Sie auf den grünen Tasten mit einem schwarzen Kreuz Zum Vergrößern, auf den grünen Button mit einem Gedankenstrich zu verkleinern, oder auf die grünen Pfeile für benachbarte Karten.


METAR-TAF: